Herzlich willkommen!

Am freundlichen Bodensee-Flugplatz zwischen Schwarzwald, Rhein und Alpen.

Aktuelles

05.07.2018
Neue Sichtflugkarte EDTZ
Bitte beachten Sie die neuen An- und Abflugverfahren, veröffentlicht am 5. Juli 2018. Der Gegenanflug Piste 30 wurde verlängert bis kurz vor die neue Rheinbrücke. Direktabflüge Piste 12 sind nicht mehr gestattet. Abdrehen nach Norden bei Abflügen nach Westen erst zwischen Hegne und Allensbach. Hubschrauberstart vom jeweiligen RWY-Beginn mit maximaler Steigrate. Bei Direktanflug/ Direktabflug sind Flüge unterhalb 2000 ft AGL so kurz wie möglich zu halten. Um Beschwerden zu vermeiden, bitten wir Sie, sich an die veröffentlichten Verfahren zu halten.
— Flugleitung EDTZ
12.08.2018
NEUE FREQUENZ 124,355
Ab sofort hat Konstanz Info die neue 8,33 kHz Frequenz 124,355
— Flugleitung EDTZ

Live am Platz

Die Bilder unserer Webcams werden alle 5 Minuten aktualisiert.

Sonnenaufgang:

04:22 UTC / 06:22 Lokal

Sonnenuntergang:

18:32 UTC / 20:32 Lokal

METAR (18.08.2018 17:50 UTC):

EDNY 181750Z AUTO 00000KT 9999 // BKN057/// BKN071/// 25/16 Q1020
VFR

TAF (18.08.2018 17:00 UTC):

TAF EDNY 181700Z 1818/1918 VRB03KT 9999 SCT055 BECMG 1909/1911 24005KT

Alle Angaben unverbindlich und ohne Gewähr. Zeiten genähert.

Für den Verkehrslandeplatz Konstanz werden keine offiziellen Wetterinformationen herausgegeben. Daher werden zur Orientierung Daten des nahegelegenen Flughafens Friedrichshafen dargestellt.